AirSardinia Virtual Manager

AirSardinia Virtual La prima compagnia sarda di volo simulato




 METAR AND TAF INFORMATION
METAR FOR LEMH
ADDS - METARS form results

(1822 UTC 26 June 2019)
Data provider http://aviationweather.gov/metar/data/
 
METAR text: LEMH 261800Z 10008KT 060V120 CAVOK 26/20 Q1019
Conditions at: LEMH (MAHON/MENORCA IS, ES) observed 1800 UTC 26 June 2019
Temperature: 26.0°C (79°F)
Dewpoint: 20.0°C (68°F) [RH = 70%]
Pressure (altimeter): 30.09 inches Hg (1019.0 mb)
Winds: from the E (100 degrees) at 9 MPH (8 knots; 4.1 m/s)
Visibility: 6 or more miles (10+ km)
Ceiling: ceiling and visibility are OK
Clouds: unknown
Weather: no significant weather observed at this time

METAR text: LEMH 261730Z 10008KT 070V140 CAVOK 27/19 Q1019
Conditions at: LEMH (MAHON/MENORCA IS, ES) observed 1730 UTC 26 June 2019
Temperature: 27.0°C (81°F)
Dewpoint: 19.0°C (66°F) [RH = 62%]
Pressure (altimeter): 30.09 inches Hg (1019.0 mb)
Winds: from the E (100 degrees) at 9 MPH (8 knots; 4.1 m/s)
Visibility: 6 or more miles (10+ km)
Ceiling: ceiling and visibility are OK
Clouds: unknown
Weather: no significant weather observed at this time

Forecast for: LEMH (MAHON/MENORCA IS, ES)
Text: TAF LEMH 261400Z 2615/2715 10012KT CAVOK TX30/2712Z TN20/2705Z
Forecast period: 1500 to 2000 UTC 26 June 2019
Forecast type: FROM: standard forecast or significant change
Winds: from the E (100 degrees) at 14 MPH (12 knots; 6.2 m/s)
Visibility: 6 or more miles 10+ km)
Ceiling: unknown
Clouds: missing
Weather: no significant weather forecast for this period
Text: BECMG 2620/2622 04008KT
Forecast period: 2000 UTC 26 June 2019 to 1500 UTC 27 June 2019
Forecast type: BECOMING: Conditions expected to become as follows by 2200 UTC 26 June 2019
Winds: from the NE (40 degrees) at 9 MPH (8 knots; 4.1 m/s)
Visibility: 6 or more miles 10+ km)
Ceiling: unknown
Clouds: missing
Weather: no significant weather forecast for this period

 AIRPORT MAP

 RUNWAY INFORMATION
Runway 01L Runway length 7710 ft Runway width 148 ft
Runway elevation 277 ft Runway displaced threshold 0 ft Runway heading 9
Runway 19R Runway length 7710 ft Runway width 148 ft
Runway elevation 298 ft Runway displaced threshold 0 ft Runway heading 189
Runway 01R Runway length 6890 ft Runway width 148 ft
Runway elevation 272 ft Runway displaced threshold 0 ft Runway heading 9
Runway 19L Runway length 6890 ft Runway width 148 ft
Runway elevation 298 ft Runway displaced threshold 0 ft Runway heading 189

 AIRPORT FREQUENCIES
Type APP Name APP Frequency 119.65 MHz
Type ATIS Name ATIS Frequency 112.6 MHz
Type GND Name GND Frequency 121.75 MHz
Type TWR Name TWR Frequency 118.2 MHz

 AIRPORT NEAR NAVIGATION AIDS
Type VOR-DME Name Menorca Frequency 112.6 MHz
Type NDB Name Menorca Frequency 344 kHz